Map

Track Data

SID SEASON NUMBER BASIN SUBBASIN NAME ISO_TIME NATURE LAT LON WMO_WIND WMO_PRES WMO_AGENCY TRACK_TYPE DIST2LAND LANDFALL IFLAG USA_AGENCY USA_ATCF_ID USA_LAT USA_LON USA_RECORD USA_STATUS USA_WIND USA_PRES USA_SSHS USA_R34_NE USA_R34_SE USA_R34_SW USA_R34_NW USA_R50_NE USA_R50_SE USA_R50_SW USA_R50_NW USA_R64_NE USA_R64_SE USA_R64_SW USA_R64_NW USA_POCI USA_ROCI USA_RMW USA_EYE TOKYO_LAT TOKYO_LON TOKYO_GRADE TOKYO_WIND TOKYO_PRES TOKYO_R50_DIR TOKYO_R50_LONG TOKYO_R50_SHORT TOKYO_R30_DIR TOKYO_R30_LONG TOKYO_R30_SHORT TOKYO_LAND CMA_LAT CMA_LON CMA_CAT CMA_WIND CMA_PRES HKO_LAT HKO_LON HKO_CAT HKO_WIND HKO_PRES NEWDELHI_LAT NEWDELHI_LON NEWDELHI_GRADE NEWDELHI_WIND NEWDELHI_PRES NEWDELHI_CI NEWDELHI_DP NEWDELHI_POCI REUNION_LAT REUNION_LON REUNION_TYPE REUNION_WIND REUNION_PRES REUNION_TNUM REUNION_CI REUNION_RMW REUNION_R34_NE REUNION_R34_SE REUNION_R34_SW REUNION_R34_NW REUNION_R50_NE REUNION_R50_SE REUNION_R50_SW REUNION_R50_NW REUNION_R64_NE REUNION_R64_SE REUNION_R64_SW REUNION_R64_NW BOM_LAT BOM_LON BOM_TYPE BOM_WIND BOM_PRES BOM_TNUM BOM_CI BOM_RMW BOM_R34_NE BOM_R34_SE BOM_R34_SW BOM_R34_NW BOM_R50_NE BOM_R50_SE BOM_R50_SW BOM_R50_NW BOM_R64_NE BOM_R64_SE BOM_R64_SW BOM_R64_NW BOM_ROCI BOM_POCI BOM_EYE BOM_POS_METHOD BOM_PRES_METHOD NADI_LAT NADI_LON NADI_CAT NADI_WIND NADI_PRES WELLINGTON_LAT WELLINGTON_LON WELLINGTON_WIND WELLINGTON_PRES DS824_LAT DS824_LON DS824_STAGE DS824_WIND DS824_PRES TD9636_LAT TD9636_LON TD9636_STAGE TD9636_WIND TD9636_PRES TD9635_LAT TD9635_LON TD9635_WIND TD9635_PRES TD9635_ROCI NEUMANN_LAT NEUMANN_LON NEUMANN_CLASS NEUMANN_WIND NEUMANN_PRES MLC_LAT MLC_LON MLC_CLASS MLC_WIND MLC_PRES USA_GUST BOM_GUST BOM_GUST_PER REUNION_GUST REUNION_GUST_PER USA_SEAHGT USA_SEARAD_NE USA_SEARAD_SE USA_SEARAD_SW USA_SEARAD_NW STORM_SPEED STORM_DIR
1922091S13066 1922 23 SI MM NOT_NAMED 1922-04-01 06:00:00 NR -12.8000 65.6000 reunion spur-split 1173 1165 _____O________ -1 -12.8000 65.6000 99 9.90000 5 165
1922091S13066 1922 23 SI MM NOT_NAMED 1922-04-01 09:00:00 NR -13.0390 65.6754 spur-split 1165 1142 _____P________ -1 -13.0390 65.6754 99 5 163
1922091S13066 1922 23 SI MM NOT_NAMED 1922-04-01 12:00:00 NR -13.2766 65.7508 spur-split 1150 1134 _____P________ -1 -13.2766 65.7508 99 5 162
1922091S13066 1922 23 SI MM NOT_NAMED 1922-04-01 15:00:00 NR -13.5116 65.8262 spur-split 1134 1127 _____P________ -1 -13.5116 65.8262 99 5 162
1922091S13066 1922 23 SI MM NOT_NAMED 1922-04-01 18:00:00 NR -13.7426 65.9016 spur-split 1128 1113 _____P________ -1 -13.7426 65.9016 99 5 162
1922091S13066 1922 23 SI MM NOT_NAMED 1922-04-01 21:00:00 NR -13.9683 65.9767 spur-split 1115 1101 _____P________ -1 -13.9683 65.9767 99 5 162
1922091S13066 1922 23 SI MM NOT_NAMED 1922-04-02 00:00:00 NR -14.1873 66.0515 spur-split 1109 1096 _____P________ -1 -14.1873 66.0515 99 5 162
1922091S13066 1922 23 SI MM NOT_NAMED 1922-04-02 03:00:00 NR -14.3983 66.1260 spur-split 1096 1089 _____P________ -1 -14.3983 66.1260 99 4 161
1922091S13066 1922 23 SI MM NOT_NAMED 1922-04-02 06:00:00 NR -14.6000 66.2000 reunion spur-split 1091 1085 _____O________ -1 -14.6000 66.2000 99 9.90000 4 160
1922091S13066 1922 23 SI MM NOT_NAMED 1922-04-02 09:00:00 NR -14.7920 66.2737 spur-split 1087 1075 _____P________ -1 -14.7920 66.2737 99 4 159
1922091S13066 1922 23 SI MM NOT_NAMED 1922-04-02 12:00:00 NR -14.9777 66.3483 spur-split 1075 1072 _____P________ -1 -14.9777 66.3483 99 4 158
1922091S13066 1922 23 SI MM NOT_NAMED 1922-04-02 15:00:00 NR -15.1614 66.4254 spur-split 1072 1072 _____P________ -1 -15.1614 66.4254 99 4 158
1922091S13066 1922 23 SI MM NOT_NAMED 1922-04-02 18:00:00 NR -15.3473 66.5063 spur-split 1075 1069 _____P________ -1 -15.3473 66.5063 99 4 156
1922091S13066 1922 23 SI MM NOT_NAMED 1922-04-02 21:00:00 NR -15.5399 66.5927 spur-split 1073 1062 _____P________ -1 -15.5399 66.5927 99 4 157
1922091S13066 1922 23 SI MM NOT_NAMED 1922-04-03 00:00:00 NR -15.7433 66.6861 spur-split 1071 1061 _____P________ -1 -15.7433 66.6861 99 5 156
1922091S13066 1922 23 SI MM NOT_NAMED 1922-04-03 03:00:00 NR -15.9619 66.7880 spur-split 1065 1060 _____P________ -1 -15.9619 66.7880 99 5 156
1922091S13066 1922 23 SI MM NOT_NAMED 1922-04-03 06:00:00 NR -16.2000 66.9000 reunion spur-split 1064 1059 _____O________ -1 -16.2000 66.9000 99 9.90000 6 157
1922091S13066 1922 23 SI MM NOT_NAMED 1922-04-03 09:00:00 NR -16.4745 67.0191 spur-split 1059 1055 _____P________ -1 -16.4745 67.0191 99 6 157
1922091S13066 1922 23 SI MM NOT_NAMED 1922-04-03 12:00:00 NR -16.7684 67.1479 spur-split 1055 1055 _____P________ -1 -16.7684 67.1479 99 7 157
1922091S13066 1922 23 SI MM NOT_NAMED 1922-04-03 15:00:00 NR -17.0775 67.2859 spur-split 1062 1058 _____P________ -1 -17.0775 67.2859 99 7 157
1922091S13066 1922 23 SI MM NOT_NAMED 1922-04-03 18:00:00 NR -17.3974 67.4327 spur-split 1060 1060 _____P________ -1 -17.3974 67.4327 99 7 156
1922091S13066 1922 23 SI MM NOT_NAMED 1922-04-03 21:00:00 NR -17.7239 67.5880 spur-split 1070 1067 _____P________ -1 -17.7239 67.5880 99 7 155
1922091S13066 1922 23 SI MM NOT_NAMED 1922-04-04 00:00:00 NR -18.0527 67.7513 spur-split 1078 1075 _____P________ -1 -18.0527 67.7513 99 7 154
1922091S13066 1922 23 SI MM NOT_NAMED 1922-04-04 03:00:00 NR -18.3795 67.9221 spur-split 1080 1080 _____P________ -1 -18.3795 67.9221 99 7 153
1922091S13066 1922 23 SI MM NOT_NAMED 1922-04-04 06:00:00 NR -18.7000 68.1000 reunion spur-split 1094 1092 _____O________ -1 -18.7000 68.1000 99 9.90000 7 151
1922091S13066 1922 23 SI MM NOT_NAMED 1922-04-04 09:00:00 NR -19.0237 68.2924 spur-split 1108 1107 _____P________ -1 -19.0237 68.2924 99 8 150
1922091S13066 1922 23 SI MM NOT_NAMED 1922-04-04 12:00:00 NR -19.3465 68.4945 spur-split 1124 1123 _____P________ -1 -19.3465 68.4945 99 8 149
1922091S13066 1922 23 SI MM NOT_NAMED 1922-04-04 15:00:00 NR -19.6636 68.7028 spur-split 1140 1140 _____P________ -1 -19.6636 68.7028 99 7 148
1922091S13066 1922 23 SI MM NOT_NAMED 1922-04-04 18:00:00 NR -19.9704 68.9133 spur-split 1158 1158 _____P________ -1 -19.9704 68.9133 99 7 147
1922091S13066 1922 23 SI MM NOT_NAMED 1922-04-04 21:00:00 NR -20.2621 69.1223 spur-split 1178 1178 _____P________ -1 -20.2621 69.1223 99 7 145
1922091S13066 1922 23 SI MM NOT_NAMED 1922-04-05 00:00:00 NR -20.5341 69.3257 spur-split 1198 1198 _____P________ -1 -20.5341 69.3257 99 6 145
1922091S13066 1922 23 SI MM NOT_NAMED 1922-04-05 03:00:00 NR -20.7816 69.5196 spur-split 1219 1219 _____P________ -1 -20.7816 69.5196 99 6 143
1922091S13066 1922 23 SI MM NOT_NAMED 1922-04-05 06:00:00 NR -21.0000 69.7000 reunion spur-split 1240 1240 _____O________ -1 -21.0000 69.7000 99 9.90000 5 141
1922091S13066 1922 23 SI MM NOT_NAMED 1922-04-05 09:00:00 NR -21.1862 69.8639 spur-split 1261 1261 _____P________ -1 -21.1862 69.8639 99 5 140
1922091S13066 1922 23 SI MM NOT_NAMED 1922-04-05 12:00:00 NR -21.3428 70.0123 spur-split 1272 1272 _____P________ -1 -21.3428 70.0123 99 4 137
1922091S13066 1922 23 SI MM NOT_NAMED 1922-04-05 15:00:00 NR -21.4743 70.1473 spur-split 1284 1284 _____P________ -1 -21.4743 70.1473 99 3 135
1922091S13066 1922 23 SI MM NOT_NAMED 1922-04-05 18:00:00 NR -21.5847 70.2713 spur-split 1305 1305 _____P________ -1 -21.5847 70.2713 99 3 132
1922091S13066 1922 23 SI MM NOT_NAMED 1922-04-05 21:00:00 NR -21.6782 70.3862 spur-split 1316 1316 _____P________ -1 -21.6782 70.3862 99 3 131
1922091S13066 1922 23 SI MM NOT_NAMED 1922-04-06 00:00:00 NR -21.7592 70.4945 spur-split 1327 1327 _____P________ -1 -21.7592 70.4945 99 3 128
1922091S13066 1922 23 SI MM NOT_NAMED 1922-04-06 03:00:00 NR -21.8317 70.5984 spur-split 1338 1338 _____P________ -1 -21.8317 70.5984 99 2 126
1922091S13066 1922 23 SI MM NOT_NAMED 1922-04-06 06:00:00 NR -21.9000 70.7000 reunion spur-split 1349 _____O________ -1 -21.9000 70.7000 99 9.90000 2 125

About IBTrACS Database

This database is a web-friendly format of International Best Track Archive for Climate Stewardship (IBTrACS), a global best track data archive curated by NOAA dating back to 1842.

Updated: 2021-11-26